sensor_id;sensor_type;location;lat;lon;timestamp;P1;durP1;ratioP1;P2;durP2;ratioP2
80586;SDS011;69943;20.850;106.728;2023-07-31T00:01:03;3.10;;;1.90;;
80586;SDS011;69943;20.850;106.728;2023-07-31T00:03:33;2.60;;;2.00;;
80586;SDS011;69943;20.850;106.728;2023-07-31T00:06:03;2.70;;;1.40;;
80586;SDS011;69943;20.850;106.728;2023-07-31T00:08:33;3.70;;;1.70;;
80586;SDS011;69943;20.850;106.728;2023-07-31T00:11:03;2.20;;;1.50;;
80586;SDS011;69943;20.850;106.728;2023-07-31T00:13:33;2.10;;;1.60;;
80586;SDS011;69943;20.850;106.728;2023-07-31T00:16:03;2.60;;;1.50;;
80586;SDS011;69943;20.850;106.728;2023-07-31T00:18:33;2.50;;;1.70;;
80586;SDS011;69943;20.850;106.728;2023-07-31T00:21:03;2.90;;;1.70;;
80586;SDS011;69943;20.850;106.728;2023-07-31T00:23:33;4.60;;;2.00;;
80586;SDS011;69943;20.850;106.728;2023-07-31T00:26:04;2.40;;;1.70;;
80586;SDS011;69943;20.850;106.728;2023-07-31T00:28:34;3.60;;;1.90;;
80586;SDS011;69943;20.850;106.728;2023-07-31T00:31:04;1.50;;;1.30;;
80586;SDS011;69943;20.850;106.728;2023-07-31T00:33:34;3.20;;;1.60;;
80586;SDS011;69943;20.850;106.728;2023-07-31T00:36:04;1.90;;;1.40;;
80586;SDS011;69943;20.850;106.728;2023-07-31T00:38:34;2.40;;;1.70;;
80586;SDS011;69943;20.850;106.728;2023-07-31T00:41:04;1.70;;;1.60;;
80586;SDS011;69943;20.850;106.728;2023-07-31T00:43:34;2.50;;;1.60;;
80586;SDS011;69943;20.850;106.728;2023-07-31T00:46:04;3.40;;;1.70;;
80586;SDS011;69943;20.850;106.728;2023-07-31T00:48:34;3.60;;;1.90;;
80586;SDS011;69943;20.850;106.728;2023-07-31T00:51:06;2.90;;;1.90;;
80586;SDS011;69943;20.850;106.728;2023-07-31T00:53:37;2.50;;;1.70;;
80586;SDS011;69943;20.850;106.728;2023-07-31T00:56:07;2.50;;;1.60;;
80586;SDS011;69943;20.850;106.728;2023-07-31T00:58:38;2.10;;;1.40;;
80586;SDS011;69943;20.850;106.728;2023-07-31T01:01:10;3.80;;;1.80;;
80586;SDS011;69943;20.850;106.728;2023-07-31T01:03:41;2.50;;;1.80;;
80586;SDS011;69943;20.850;106.728;2023-07-31T01:06:15;2.70;;;1.80;;
80586;SDS011;69943;20.850;106.728;2023-07-31T01:09:20;4.40;;;1.90;;
80586;SDS011;69943;20.850;106.728;2023-07-31T01:11:57;2.30;;;1.70;;
80586;SDS011;69943;20.850;106.728;2023-07-31T01:14:31;3.40;;;2.20;;
80586;SDS011;69943;20.850;106.728;2023-07-31T01:17:01;2.30;;;1.70;;
80586;SDS011;69943;20.850;106.728;2023-07-31T01:19:31;3.50;;;2.00;;
80586;SDS011;69943;20.850;106.728;2023-07-31T01:27:29;4.50;;;2.00;;
80586;SDS011;69943;20.850;106.728;2023-07-31T01:33:05;5.10;;;2.10;;
80586;SDS011;69943;20.850;106.728;2023-07-31T01:35:37;4.20;;;1.90;;
80586;SDS011;69943;20.850;106.728;2023-07-31T01:38:07;3.90;;;1.90;;
80586;SDS011;69943;20.850;106.728;2023-07-31T01:40:40;2.90;;;2.00;;
80586;SDS011;69943;20.850;106.728;2023-07-31T01:43:11;3.70;;;1.90;;
80586;SDS011;69943;20.850;106.728;2023-07-31T01:45:42;5.30;;;2.20;;
80586;SDS011;69943;20.850;106.728;2023-07-31T01:48:12;3.50;;;1.80;;
80586;SDS011;69943;20.850;106.728;2023-07-31T01:50:44;2.80;;;1.70;;
80586;SDS011;69943;20.850;106.728;2023-07-31T01:53:14;3.80;;;2.00;;
80586;SDS011;69943;20.850;106.728;2023-07-31T01:55:44;4.30;;;1.60;;
80586;SDS011;69943;20.850;106.728;2023-07-31T01:58:14;2.90;;;1.70;;
80586;SDS011;69943;20.850;106.728;2023-07-31T02:00:44;3.60;;;1.80;;
80586;SDS011;69943;20.850;106.728;2023-07-31T02:03:14;3.50;;;2.00;;
80586;SDS011;69943;20.850;106.728;2023-07-31T02:05:46;3.80;;;1.70;;
80586;SDS011;69943;20.850;106.728;2023-07-31T02:08:16;3.00;;;1.70;;
80586;SDS011;69943;20.850;106.728;2023-07-31T02:10:46;2.60;;;1.70;;
80586;SDS011;69943;20.850;106.728;2023-07-31T02:13:16;2.60;;;1.60;;
80586;SDS011;69943;20.850;106.728;2023-07-31T02:15:46;3.10;;;1.90;;
80586;SDS011;69943;20.850;106.728;2023-07-31T02:18:17;4.70;;;1.90;;
80586;SDS011;69943;20.850;106.728;2023-07-31T02:20:50;2.70;;;1.80;;
80586;SDS011;69943;20.850;106.728;2023-07-31T02:23:21;2.80;;;1.40;;
80586;SDS011;69943;20.850;106.728;2023-07-31T02:25:51;3.60;;;1.60;;
80586;SDS011;69943;20.850;106.728;2023-07-31T02:28:21;4.30;;;1.70;;
80586;SDS011;69943;20.850;106.728;2023-07-31T02:30:51;4.40;;;1.80;;
80586;SDS011;69943;20.850;106.728;2023-07-31T02:33:21;4.70;;;1.70;;
80586;SDS011;69943;20.850;106.728;2023-07-31T02:35:51;3.50;;;1.60;;
80586;SDS011;69943;20.850;106.728;2023-07-31T02:38:21;2.10;;;1.60;;
80586;SDS011;69943;20.850;106.728;2023-07-31T02:40:51;2.50;;;1.60;;
80586;SDS011;69943;20.850;106.728;2023-07-31T02:43:21;2.00;;;1.70;;
80586;SDS011;69943;20.850;106.728;2023-07-31T02:45:52;2.80;;;1.60;;
80586;SDS011;69943;20.850;106.728;2023-07-31T02:48:22;5.40;;;1.70;;
80586;SDS011;69943;20.850;106.728;2023-07-31T02:50:53;2.50;;;2.00;;
80586;SDS011;69943;20.850;106.728;2023-07-31T02:53:23;2.90;;;1.70;;
80586;SDS011;69943;20.850;106.728;2023-07-31T02:55:52;2.40;;;1.60;;
80586;SDS011;69943;20.850;106.728;2023-07-31T02:58:22;2.10;;;1.40;;
80586;SDS011;69943;20.850;106.728;2023-07-31T03:00:52;2.30;;;1.60;;
80586;SDS011;69943;20.850;106.728;2023-07-31T03:03:22;4.00;;;1.60;;
80586;SDS011;69943;20.850;106.728;2023-07-31T03:05:53;5.20;;;1.90;;
80586;SDS011;69943;20.850;106.728;2023-07-31T03:08:23;4.70;;;2.00;;
80586;SDS011;69943;20.850;106.728;2023-07-31T03:10:53;4.70;;;2.50;;
80586;SDS011;69943;20.850;106.728;2023-07-31T03:13:23;4.60;;;1.90;;
80586;SDS011;69943;20.850;106.728;2023-07-31T03:15:52;2.90;;;1.80;;
80586;SDS011;69943;20.850;106.728;2023-07-31T03:18:22;3.50;;;1.70;;
80586;SDS011;69943;20.850;106.728;2023-07-31T03:20:52;4.70;;;1.60;;
80586;SDS011;69943;20.850;106.728;2023-07-31T03:23:23;3.80;;;1.90;;
80586;SDS011;69943;20.850;106.728;2023-07-31T03:25:57;5.40;;;1.80;;
80586;SDS011;69943;20.850;106.728;2023-07-31T03:28:27;3.50;;;2.10;;
80586;SDS011;69943;20.850;106.728;2023-07-31T03:30:58;2.70;;;1.40;;
80586;SDS011;69943;20.850;106.728;2023-07-31T03:33:29;5.10;;;2.00;;
80586;SDS011;69943;20.850;106.728;2023-07-31T03:35:58;3.40;;;1.90;;
80586;SDS011;69943;20.850;106.728;2023-07-31T03:38:28;3.10;;;1.70;;
80586;SDS011;69943;20.850;106.728;2023-07-31T03:40:59;3.30;;;1.70;;
80586;SDS011;69943;20.850;106.728;2023-07-31T03:43:30;3.10;;;1.60;;
80586;SDS011;69943;20.850;106.728;2023-07-31T03:46:01;3.30;;;1.80;;
80586;SDS011;69943;20.850;106.728;2023-07-31T03:48:31;2.20;;;1.60;;
80586;SDS011;69943;20.850;106.728;2023-07-31T03:51:01;3.80;;;2.00;;
80586;SDS011;69943;20.850;106.728;2023-07-31T03:53:31;4.70;;;1.60;;
80586;SDS011;69943;20.850;106.728;2023-07-31T03:56:01;3.80;;;1.90;;
80586;SDS011;69943;20.850;106.728;2023-07-31T03:58:31;3.10;;;1.60;;
80586;SDS011;69943;20.850;106.728;2023-07-31T04:01:01;2.90;;;2.30;;
80586;SDS011;69943;20.850;106.728;2023-07-31T04:03:32;3.70;;;1.60;;
80586;SDS011;69943;20.850;106.728;2023-07-31T04:06:02;3.50;;;1.60;;
80586;SDS011;69943;20.850;106.728;2023-07-31T04:08:32;4.40;;;2.00;;
80586;SDS011;69943;20.850;106.728;2023-07-31T04:11:02;2.80;;;1.40;;
80586;SDS011;69943;20.850;106.728;2023-07-31T04:13:32;4.10;;;1.70;;
80586;SDS011;69943;20.850;106.728;2023-07-31T04:16:02;2.60;;;1.60;;
80586;SDS011;69943;20.850;106.728;2023-07-31T04:18:32;2.60;;;1.40;;
80586;SDS011;69943;20.850;106.728;2023-07-31T04:21:03;2.80;;;1.60;;
80586;SDS011;69943;20.850;106.728;2023-07-31T04:23:33;3.30;;;1.60;;
80586;SDS011;69943;20.850;106.728;2023-07-31T04:26:03;1.70;;;1.40;;
80586;SDS011;69943;20.850;106.728;2023-07-31T04:28:33;2.70;;;1.80;;
80586;SDS011;69943;20.850;106.728;2023-07-31T04:31:03;2.80;;;1.80;;
80586;SDS011;69943;20.850;106.728;2023-07-31T04:33:36;3.30;;;1.90;;
80586;SDS011;69943;20.850;106.728;2023-07-31T04:36:06;3.40;;;1.40;;
80586;SDS011;69943;20.850;106.728;2023-07-31T04:38:36;1.50;;;1.40;;
80586;SDS011;69943;20.850;106.728;2023-07-31T04:41:07;1.60;;;1.30;;
80586;SDS011;69943;20.850;106.728;2023-07-31T04:43:37;2.40;;;1.50;;
80586;SDS011;69943;20.850;106.728;2023-07-31T04:46:08;2.10;;;1.60;;
80586;SDS011;69943;20.850;106.728;2023-07-31T04:48:38;1.30;;;1.20;;
80586;SDS011;69943;20.850;106.728;2023-07-31T04:51:08;2.60;;;1.30;;
80586;SDS011;69943;20.850;106.728;2023-07-31T04:53:38;1.40;;;1.30;;
80586;SDS011;69943;20.850;106.728;2023-07-31T04:56:09;3.10;;;1.40;;
80586;SDS011;69943;20.850;106.728;2023-07-31T04:58:39;3.20;;;1.70;;
80586;SDS011;69943;20.850;106.728;2023-07-31T05:01:10;2.60;;;1.60;;
80586;SDS011;69943;20.850;106.728;2023-07-31T05:03:40;1.80;;;1.30;;
80586;SDS011;69943;20.850;106.728;2023-07-31T05:06:11;4.60;;;1.80;;
80586;SDS011;69943;20.850;106.728;2023-07-31T05:08:41;3.80;;;1.40;;
80586;SDS011;69943;20.850;106.728;2023-07-31T05:11:13;2.50;;;1.50;;
80586;SDS011;69943;20.850;106.728;2023-07-31T05:13:43;1.90;;;1.40;;
80586;SDS011;69943;20.850;106.728;2023-07-31T05:16:13;1.60;;;1.10;;
80586;SDS011;69943;20.850;106.728;2023-07-31T05:18:47;1.80;;;1.30;;
80586;SDS011;69943;20.850;106.728;2023-07-31T05:21:17;3.20;;;1.40;;
80586;SDS011;69943;20.850;106.728;2023-07-31T05:23:48;1.90;;;1.30;;
80586;SDS011;69943;20.850;106.728;2023-07-31T05:26:19;3.00;;;1.50;;
80586;SDS011;69943;20.850;106.728;2023-07-31T05:28:51;1.80;;;1.10;;
80586;SDS011;69943;20.850;106.728;2023-07-31T05:31:21;2.10;;;1.30;;
80586;SDS011;69943;20.850;106.728;2023-07-31T05:33:52;2.90;;;1.80;;
80586;SDS011;69943;20.850;106.728;2023-07-31T05:36:23;1.20;;;1.10;;
80586;SDS011;69943;20.850;106.728;2023-07-31T05:38:53;3.30;;;1.20;;
80586;SDS011;69943;20.850;106.728;2023-07-31T05:41:23;3.80;;;1.80;;
80586;SDS011;69943;20.850;106.728;2023-07-31T05:43:54;4.20;;;1.90;;
80586;SDS011;69943;20.850;106.728;2023-07-31T05:46:24;2.90;;;1.20;;
80586;SDS011;69943;20.850;106.728;2023-07-31T05:48:54;3.40;;;1.50;;
80586;SDS011;69943;20.850;106.728;2023-07-31T05:51:24;3.50;;;1.30;;
80586;SDS011;69943;20.850;106.728;2023-07-31T05:53:54;3.10;;;2.30;;
80586;SDS011;69943;20.850;106.728;2023-07-31T05:56:24;2.40;;;1.50;;
80586;SDS011;69943;20.850;106.728;2023-07-31T05:58:55;2.70;;;1.40;;
80586;SDS011;69943;20.850;106.728;2023-07-31T06:01:26;1.70;;;1.20;;
80586;SDS011;69943;20.850;106.728;2023-07-31T06:03:56;3.60;;;1.60;;
80586;SDS011;69943;20.850;106.728;2023-07-31T06:06:26;2.20;;;1.50;;
80586;SDS011;69943;20.850;106.728;2023-07-31T06:08:56;2.10;;;1.60;;
80586;SDS011;69943;20.850;106.728;2023-07-31T06:11:26;1.80;;;1.30;;
80586;SDS011;69943;20.850;106.728;2023-07-31T06:13:56;1.80;;;1.40;;
80586;SDS011;69943;20.850;106.728;2023-07-31T06:16:26;2.90;;;1.50;;
80586;SDS011;69943;20.850;106.728;2023-07-31T06:18:56;2.10;;;1.70;;
80586;SDS011;69943;20.850;106.728;2023-07-31T06:21:25;2.00;;;1.60;;
80586;SDS011;69943;20.850;106.728;2023-07-31T06:23:56;2.30;;;1.70;;
80586;SDS011;69943;20.850;106.728;2023-07-31T06:26:26;3.30;;;1.80;;
80586;SDS011;69943;20.850;106.728;2023-07-31T06:28:56;2.10;;;1.70;;
80586;SDS011;69943;20.850;106.728;2023-07-31T06:31:25;3.50;;;1.90;;
80586;SDS011;69943;20.850;106.728;2023-07-31T06:33:55;2.40;;;1.70;;
80586;SDS011;69943;20.850;106.728;2023-07-31T06:36:25;3.20;;;1.70;;
80586;SDS011;69943;20.850;106.728;2023-07-31T06:38:55;2.90;;;2.30;;
80586;SDS011;69943;20.850;106.728;2023-07-31T06:41:25;2.40;;;1.90;;
80586;SDS011;69943;20.850;106.728;2023-07-31T06:43:55;2.80;;;1.90;;
80586;SDS011;69943;20.850;106.728;2023-07-31T06:46:25;4.10;;;2.00;;
80586;SDS011;69943;20.850;106.728;2023-07-31T06:48:55;3.20;;;1.80;;
80586;SDS011;69943;20.850;106.728;2023-07-31T06:51:26;3.10;;;1.60;;
80586;SDS011;69943;20.850;106.728;2023-07-31T06:53:56;3.60;;;2.00;;
80586;SDS011;69943;20.850;106.728;2023-07-31T06:56:26;3.40;;;2.00;;
80586;SDS011;69943;20.850;106.728;2023-07-31T06:58:56;3.80;;;1.90;;
80586;SDS011;69943;20.850;106.728;2023-07-31T07:01:26;2.30;;;1.60;;
80586;SDS011;69943;20.850;106.728;2023-07-31T07:03:56;2.80;;;1.90;;
80586;SDS011;69943;20.850;106.728;2023-07-31T07:06:27;3.70;;;1.90;;
80586;SDS011;69943;20.850;106.728;2023-07-31T07:08:57;2.70;;;2.10;;
80586;SDS011;69943;20.850;106.728;2023-07-31T07:11:27;4.20;;;2.30;;
80586;SDS011;69943;20.850;106.728;2023-07-31T07:13:57;4.90;;;2.50;;
80586;SDS011;69943;20.850;106.728;2023-07-31T07:16:29;3.80;;;2.20;;
80586;SDS011;69943;20.850;106.728;2023-07-31T07:18:59;6.20;;;2.00;;
80586;SDS011;69943;20.850;106.728;2023-07-31T07:21:30;4.50;;;2.10;;
80586;SDS011;69943;20.850;106.728;2023-07-31T07:24:00;2.80;;;1.80;;
80586;SDS011;69943;20.850;106.728;2023-07-31T07:26:30;5.60;;;2.10;;
80586;SDS011;69943;20.850;106.728;2023-07-31T07:29:01;3.90;;;2.10;;
80586;SDS011;69943;20.850;106.728;2023-07-31T07:31:31;3.30;;;2.00;;
80586;SDS011;69943;20.850;106.728;2023-07-31T07:34:01;3.20;;;2.20;;
80586;SDS011;69943;20.850;106.728;2023-07-31T07:36:31;2.30;;;1.80;;
80586;SDS011;69943;20.850;106.728;2023-07-31T07:39:02;5.60;;;2.20;;
80586;SDS011;69943;20.850;106.728;2023-07-31T07:41:32;3.30;;;2.60;;
80586;SDS011;69943;20.850;106.728;2023-07-31T07:44:02;3.40;;;2.20;;
80586;SDS011;69943;20.850;106.728;2023-07-31T07:46:32;4.30;;;2.50;;
80586;SDS011;69943;20.850;106.728;2023-07-31T07:49:02;2.50;;;1.90;;
80586;SDS011;69943;20.850;106.728;2023-07-31T07:51:33;5.60;;;2.10;;
80586;SDS011;69943;20.850;106.728;2023-07-31T07:54:03;3.20;;;2.00;;
80586;SDS011;69943;20.850;106.728;2023-07-31T07:56:33;3.10;;;1.90;;
80586;SDS011;69943;20.850;106.728;2023-07-31T07:59:04;2.60;;;2.10;;
80586;SDS011;69943;20.850;106.728;2023-07-31T08:01:34;3.80;;;2.10;;
80586;SDS011;69943;20.850;106.728;2023-07-31T08:04:04;3.50;;;2.30;;
80586;SDS011;69943;20.850;106.728;2023-07-31T08:06:34;4.30;;;2.30;;
80586;SDS011;69943;20.850;106.728;2023-07-31T08:09:04;3.90;;;2.10;;
80586;SDS011;69943;20.850;106.728;2023-07-31T08:11:34;5.00;;;2.20;;
80586;SDS011;69943;20.850;106.728;2023-07-31T08:14:04;3.50;;;2.00;;
80586;SDS011;69943;20.850;106.728;2023-07-31T08:16:35;2.60;;;1.90;;
80586;SDS011;69943;20.850;106.728;2023-07-31T08:19:05;4.10;;;2.00;;
80586;SDS011;69943;20.850;106.728;2023-07-31T08:21:35;2.60;;;2.20;;
80586;SDS011;69943;20.850;106.728;2023-07-31T08:24:05;3.30;;;1.80;;
80586;SDS011;69943;20.850;106.728;2023-07-31T08:26:36;3.50;;;2.30;;
80586;SDS011;69943;20.850;106.728;2023-07-31T08:29:07;2.90;;;2.20;;
80586;SDS011;69943;20.850;106.728;2023-07-31T08:31:38;4.80;;;1.80;;
80586;SDS011;69943;20.850;106.728;2023-07-31T08:34:08;3.90;;;1.60;;
80586;SDS011;69943;20.850;106.728;2023-07-31T08:36:39;2.20;;;1.90;;
80586;SDS011;69943;20.850;106.728;2023-07-31T08:39:09;4.40;;;1.80;;
80586;SDS011;69943;20.850;106.728;2023-07-31T08:41:39;4.10;;;1.90;;
80586;SDS011;69943;20.850;106.728;2023-07-31T08:44:10;2.80;;;1.70;;
80586;SDS011;69943;20.850;106.728;2023-07-31T08:46:40;3.80;;;1.80;;
80586;SDS011;69943;20.850;106.728;2023-07-31T08:49:10;2.50;;;1.80;;
80586;SDS011;69943;20.850;106.728;2023-07-31T08:51:41;2.10;;;1.60;;
80586;SDS011;69943;20.850;106.728;2023-07-31T08:54:11;4.10;;;1.70;;
80586;SDS011;69943;20.850;106.728;2023-07-31T08:56:41;5.00;;;2.20;;
80586;SDS011;69943;20.850;106.728;2023-07-31T08:59:13;2.80;;;1.80;;
80586;SDS011;69943;20.850;106.728;2023-07-31T09:01:48;2.40;;;1.80;;
80586;SDS011;69943;20.850;106.728;2023-07-31T09:04:20;5.20;;;1.70;;
80586;SDS011;69943;20.850;106.728;2023-07-31T09:06:52;2.10;;;1.50;;
80586;SDS011;69943;20.850;106.728;2023-07-31T09:09:25;2.30;;;1.80;;
80586;SDS011;69943;20.850;106.728;2023-07-31T09:11:56;2.90;;;1.50;;
80586;SDS011;69943;20.850;106.728;2023-07-31T09:14:28;2.60;;;2.20;;
80586;SDS011;69943;20.850;106.728;2023-07-31T09:16:59;2.00;;;1.60;;
80586;SDS011;69943;20.850;106.728;2023-07-31T09:19:32;2.80;;;1.70;;
80586;SDS011;69943;20.850;106.728;2023-07-31T09:22:05;3.50;;;1.90;;
80586;SDS011;69943;20.850;106.728;2023-07-31T09:24:39;3.60;;;1.70;;
80586;SDS011;69943;20.850;106.728;2023-07-31T09:27:09;3.40;;;1.90;;
80586;SDS011;69943;20.850;106.728;2023-07-31T09:29:40;2.50;;;1.80;;
80586;SDS011;69943;20.850;106.728;2023-07-31T09:32:17;3.30;;;1.90;;
80586;SDS011;69943;20.850;106.728;2023-07-31T09:34:47;2.30;;;1.90;;
80586;SDS011;69943;20.850;106.728;2023-07-31T09:37:18;2.80;;;1.70;;
80586;SDS011;69943;20.850;106.728;2023-07-31T09:39:49;4.50;;;2.20;;
80586;SDS011;69943;20.850;106.728;2023-07-31T09:42:26;3.50;;;2.00;;
80586;SDS011;69943;20.850;106.728;2023-07-31T09:45:09;4.40;;;2.20;;
80586;SDS011;69943;20.850;106.728;2023-07-31T09:47:45;4.10;;;2.10;;
80586;SDS011;69943;20.850;106.728;2023-07-31T09:50:23;4.90;;;2.20;;
80586;SDS011;69943;20.850;106.728;2023-07-31T09:52:58;4.20;;;2.10;;
80586;SDS011;69943;20.850;106.728;2023-07-31T09:55:28;4.50;;;2.10;;
80586;SDS011;69943;20.850;106.728;2023-07-31T09:58:04;5.00;;;2.30;;
80586;SDS011;69943;20.850;106.728;2023-07-31T10:03:12;5.10;;;2.30;;
80586;SDS011;69943;20.850;106.728;2023-07-31T10:05:45;3.40;;;2.20;;
80586;SDS011;69943;20.850;106.728;2023-07-31T10:08:21;6.10;;;2.20;;
80586;SDS011;69943;20.850;106.728;2023-07-31T10:10:59;3.10;;;2.20;;
80586;SDS011;69943;20.850;106.728;2023-07-31T10:13:39;3.90;;;2.30;;
80586;SDS011;69943;20.850;106.728;2023-07-31T10:16:12;3.90;;;2.30;;
80586;SDS011;69943;20.850;106.728;2023-07-31T10:18:43;2.30;;;2.10;;
80586;SDS011;69943;20.850;106.728;2023-07-31T10:21:14;4.00;;;2.00;;
80586;SDS011;69943;20.850;106.728;2023-07-31T10:23:45;4.20;;;2.20;;
80586;SDS011;69943;20.850;106.728;2023-07-31T10:26:17;3.50;;;2.40;;
80586;SDS011;69943;20.850;106.728;2023-07-31T10:28:49;6.90;;;2.60;;
80586;SDS011;69943;20.850;106.728;2023-07-31T10:31:21;6.30;;;2.30;;
80586;SDS011;69943;20.850;106.728;2023-07-31T10:33:53;2.80;;;2.00;;
80586;SDS011;69943;20.850;106.728;2023-07-31T10:36:24;4.90;;;2.10;;
80586;SDS011;69943;20.850;106.728;2023-07-31T10:38:58;4.50;;;2.40;;
80586;SDS011;69943;20.850;106.728;2023-07-31T10:41:28;3.00;;;1.90;;
80586;SDS011;69943;20.850;106.728;2023-07-31T10:46:34;4.40;;;2.20;;
80586;SDS011;69943;20.850;106.728;2023-07-31T10:49:04;4.30;;;2.50;;
80586;SDS011;69943;20.850;106.728;2023-07-31T10:51:34;3.40;;;2.20;;
80586;SDS011;69943;20.850;106.728;2023-07-31T10:54:14;4.60;;;2.00;;
80586;SDS011;69943;20.850;106.728;2023-07-31T10:56:52;4.00;;;2.20;;
80586;SDS011;69943;20.850;106.728;2023-07-31T10:59:26;6.30;;;2.60;;
80586;SDS011;69943;20.850;106.728;2023-07-31T11:01:56;3.00;;;1.90;;
80586;SDS011;69943;20.850;106.728;2023-07-31T11:04:26;3.70;;;2.10;;
80586;SDS011;69943;20.850;106.728;2023-07-31T11:06:59;4.10;;;2.20;;
80586;SDS011;69943;20.850;106.728;2023-07-31T11:09:31;4.00;;;2.70;;
80586;SDS011;69943;20.850;106.728;2023-07-31T11:12:01;4.40;;;2.20;;
80586;SDS011;69943;20.850;106.728;2023-07-31T11:14:31;4.60;;;2.10;;
80586;SDS011;69943;20.850;106.728;2023-07-31T11:17:05;4.00;;;2.00;;
80586;SDS011;69943;20.850;106.728;2023-07-31T11:19:35;3.90;;;2.60;;
80586;SDS011;69943;20.850;106.728;2023-07-31T11:22:07;3.30;;;1.70;;
80586;SDS011;69943;20.850;106.728;2023-07-31T11:24:37;5.70;;;2.40;;
80586;SDS011;69943;20.850;106.728;2023-07-31T11:27:07;6.50;;;2.20;;
80586;SDS011;69943;20.850;106.728;2023-07-31T11:29:37;7.30;;;2.50;;
80586;SDS011;69943;20.850;106.728;2023-07-31T11:32:15;4.80;;;2.10;;
80586;SDS011;69943;20.850;106.728;2023-07-31T11:34:52;6.30;;;2.30;;
80586;SDS011;69943;20.850;106.728;2023-07-31T11:37:22;6.00;;;2.70;;
80586;SDS011;69943;20.850;106.728;2023-07-31T11:39:59;9.30;;;2.90;;
80586;SDS011;69943;20.850;106.728;2023-07-31T11:42:29;5.70;;;2.60;;
80586;SDS011;69943;20.850;106.728;2023-07-31T11:45:02;7.10;;;3.00;;
80586;SDS011;69943;20.850;106.728;2023-07-31T11:47:40;5.80;;;2.80;;
80586;SDS011;69943;20.850;106.728;2023-07-31T11:50:11;7.10;;;3.00;;
80586;SDS011;69943;20.850;106.728;2023-07-31T11:52:41;6.80;;;3.30;;
80586;SDS011;69943;20.850;106.728;2023-07-31T11:55:13;4.80;;;2.50;;
80586;SDS011;69943;20.850;106.728;2023-07-31T11:57:43;7.70;;;2.80;;
80586;SDS011;69943;20.850;106.728;2023-07-31T12:00:15;4.80;;;2.60;;
80586;SDS011;69943;20.850;106.728;2023-07-31T12:02:45;6.80;;;3.10;;
80586;SDS011;69943;20.850;106.728;2023-07-31T12:05:15;9.10;;;3.00;;
80586;SDS011;69943;20.850;106.728;2023-07-31T12:07:52;5.30;;;2.50;;
80586;SDS011;69943;20.850;106.728;2023-07-31T12:10:24;4.40;;;2.10;;
80586;SDS011;69943;20.850;106.728;2023-07-31T12:13:02;6.60;;;2.30;;
80586;SDS011;69943;20.850;106.728;2023-07-31T12:15:38;6.50;;;2.90;;
80586;SDS011;69943;20.850;106.728;2023-07-31T12:18:10;5.80;;;2.50;;
80586;SDS011;69943;20.850;106.728;2023-07-31T12:20:44;5.30;;;2.40;;
80586;SDS011;69943;20.850;106.728;2023-07-31T12:23:23;9.40;;;2.80;;
80586;SDS011;69943;20.850;106.728;2023-07-31T12:26:08;5.70;;;2.50;;
80586;SDS011;69943;20.850;106.728;2023-07-31T12:28:49;4.00;;;2.10;;
80586;SDS011;69943;20.850;106.728;2023-07-31T12:31:22;5.30;;;2.30;;
80586;SDS011;69943;20.850;106.728;2023-07-31T12:33:52;6.00;;;2.50;;
80586;SDS011;69943;20.850;106.728;2023-07-31T12:36:23;7.10;;;2.20;;
80586;SDS011;69943;20.850;106.728;2023-07-31T12:38:53;4.80;;;2.10;;
80586;SDS011;69943;20.850;106.728;2023-07-31T12:41:27;4.10;;;2.10;;
80586;SDS011;69943;20.850;106.728;2023-07-31T12:43:58;3.90;;;2.00;;
80586;SDS011;69943;20.850;106.728;2023-07-31T12:46:28;4.70;;;1.70;;
80586;SDS011;69943;20.850;106.728;2023-07-31T12:48:58;5.50;;;1.70;;
80586;SDS011;69943;20.850;106.728;2023-07-31T12:51:28;6.50;;;2.20;;
80586;SDS011;69943;20.850;106.728;2023-07-31T12:53:58;5.60;;;2.10;;
80586;SDS011;69943;20.850;106.728;2023-07-31T12:56:27;3.60;;;1.70;;
80586;SDS011;69943;20.850;106.728;2023-07-31T12:58:57;5.50;;;2.00;;
80586;SDS011;69943;20.850;106.728;2023-07-31T13:01:27;3.00;;;1.40;;
80586;SDS011;69943;20.850;106.728;2023-07-31T13:03:57;5.50;;;2.60;;
80586;SDS011;69943;20.850;106.728;2023-07-31T13:06:27;3.30;;;1.90;;
80586;SDS011;69943;20.850;106.728;2023-07-31T13:08:57;2.90;;;1.60;;
80586;SDS011;69943;20.850;106.728;2023-07-31T13:11:28;3.70;;;1.60;;
80586;SDS011;69943;20.850;106.728;2023-07-31T13:13:58;2.90;;;1.90;;
80586;SDS011;69943;20.850;106.728;2023-07-31T13:16:28;4.60;;;1.40;;
80586;SDS011;69943;20.850;106.728;2023-07-31T13:18:58;5.10;;;1.70;;
80586;SDS011;69943;20.850;106.728;2023-07-31T13:21:29;4.10;;;1.60;;
80586;SDS011;69943;20.850;106.728;2023-07-31T13:23:59;5.10;;;2.10;;
80586;SDS011;69943;20.850;106.728;2023-07-31T13:26:28;4.60;;;1.40;;
80586;SDS011;69943;20.850;106.728;2023-07-31T13:28:59;3.20;;;1.70;;
80586;SDS011;69943;20.850;106.728;2023-07-31T13:31:28;2.60;;;1.50;;
80586;SDS011;69943;20.850;106.728;2023-07-31T13:33:58;2.60;;;1.60;;
80586;SDS011;69943;20.850;106.728;2023-07-31T13:36:28;3.20;;;1.70;;
80586;SDS011;69943;20.850;106.728;2023-07-31T13:38:59;4.90;;;1.60;;
80586;SDS011;69943;20.850;106.728;2023-07-31T13:41:29;2.50;;;1.50;;
80586;SDS011;69943;20.850;106.728;2023-07-31T13:43:59;1.90;;;1.60;;
80586;SDS011;69943;20.850;106.728;2023-07-31T13:46:29;3.20;;;1.60;;
80586;SDS011;69943;20.850;106.728;2023-07-31T13:49:03;2.40;;;1.40;;
80586;SDS011;69943;20.850;106.728;2023-07-31T13:51:34;1.40;;;1.10;;
80586;SDS011;69943;20.850;106.728;2023-07-31T13:54:04;4.90;;;1.50;;
80586;SDS011;69943;20.850;106.728;2023-07-31T13:56:37;2.80;;;1.10;;
80586;SDS011;69943;20.850;106.728;2023-07-31T13:59:07;2.60;;;1.20;;
80586;SDS011;69943;20.850;106.728;2023-07-31T14:01:37;1.50;;;1.30;;
80586;SDS011;69943;20.850;106.728;2023-07-31T14:04:10;3.20;;;1.60;;
80586;SDS011;69943;20.850;106.728;2023-07-31T14:06:41;3.10;;;1.10;;
80586;SDS011;69943;20.850;106.728;2023-07-31T14:09:12;2.20;;;1.00;;
80586;SDS011;69943;20.850;106.728;2023-07-31T14:11:44;2.80;;;1.50;;
80586;SDS011;69943;20.850;106.728;2023-07-31T14:14:15;1.20;;;1.10;;
80586;SDS011;69943;20.850;106.728;2023-07-31T14:16:47;1.30;;;1.00;;
80586;SDS011;69943;20.850;106.728;2023-07-31T14:19:18;2.70;;;1.40;;
80586;SDS011;69943;20.850;106.728;2023-07-31T14:21:48;2.50;;;1.20;;
80586;SDS011;69943;20.850;106.728;2023-07-31T14:24:18;2.10;;;1.10;;
80586;SDS011;69943;20.850;106.728;2023-07-31T14:26:48;1.60;;;1.10;;
80586;SDS011;69943;20.850;106.728;2023-07-31T14:29:21;4.10;;;1.60;;
80586;SDS011;69943;20.850;106.728;2023-07-31T14:31:52;3.10;;;1.10;;
80586;SDS011;69943;20.850;106.728;2023-07-31T14:34:22;1.70;;;1.30;;
80586;SDS011;69943;20.850;106.728;2023-07-31T14:36:52;1.60;;;1.10;;
80586;SDS011;69943;20.850;106.728;2023-07-31T14:39:22;2.10;;;1.40;;
80586;SDS011;69943;20.850;106.728;2023-07-31T14:41:53;2.80;;;1.20;;
80586;SDS011;69943;20.850;106.728;2023-07-31T14:44:23;2.10;;;1.50;;
80586;SDS011;69943;20.850;106.728;2023-07-31T14:46:53;1.60;;;1.30;;
80586;SDS011;69943;20.850;106.728;2023-07-31T14:49:24;3.90;;;1.50;;
80586;SDS011;69943;20.850;106.728;2023-07-31T14:51:56;1.80;;;1.30;;
80586;SDS011;69943;20.850;106.728;2023-07-31T14:54:29;4.70;;;1.60;;
80586;SDS011;69943;20.850;106.728;2023-07-31T14:56:59;2.60;;;1.60;;